createdAt,value
2024-04-13T00:00:43.480Z,11.52
2024-04-13T00:01:43.640Z,11.599999
2024-04-13T00:02:43.783Z,11.759999
2024-04-13T00:03:44.002Z,11.759999
2024-04-13T00:04:44.140Z,11.84
2024-04-13T00:05:44.201Z,11.92
2024-04-13T00:06:45.505Z,12
2024-04-13T00:07:44.481Z,12.08
2024-04-13T00:08:44.581Z,12.16
2024-04-13T00:09:44.738Z,12.16
2024-04-13T00:10:44.835Z,12.16
2024-04-13T00:11:44.978Z,12.16
2024-04-13T00:12:45.131Z,12.24
2024-04-13T00:13:45.288Z,12.24
2024-04-13T00:14:45.436Z,12.24
2024-04-13T00:15:45.589Z,12.32
2024-04-13T00:16:45.701Z,12.4
2024-04-13T00:17:45.856Z,12.4
2024-04-13T00:18:46.008Z,12.48
2024-04-13T00:19:46.140Z,12.48
2024-04-13T00:20:46.249Z,12.48
2024-04-13T00:21:46.407Z,12.4
2024-04-13T00:22:46.500Z,12.4
2024-04-13T00:23:46.650Z,12.32
2024-04-13T00:24:46.807Z,12.24
2024-04-13T00:25:46.950Z,12.24
2024-04-13T00:26:47.102Z,12.16
2024-04-13T00:27:47.263Z,12
2024-04-13T00:28:47.361Z,11.92
2024-04-13T00:29:47.518Z,11.84
2024-04-13T00:30:47.676Z,11.759999
2024-04-13T00:31:47.815Z,11.679999
2024-04-13T00:32:48.006Z,11.679999
2024-04-13T00:33:48.125Z,11.599999
2024-04-13T00:34:48.229Z,11.52
2024-04-13T00:35:48.378Z,11.44
2024-04-13T00:36:48.528Z,11.36
2024-04-13T00:37:48.676Z,11.28
2024-04-13T00:38:48.782Z,11.2
2024-04-13T00:39:48.925Z,11.2
2024-04-13T00:40:49.038Z,11.12
2024-04-13T00:41:49.224Z,11.04
2024-04-13T00:42:49.685Z,11.04
2024-04-13T00:44:50.067Z,10.88
2024-04-13T00:46:50.335Z,10.8
2024-04-13T00:48:50.768Z,10.719999
2024-04-13T00:50:50.496Z,10.639999
2024-04-13T00:51:50.648Z,10.639999
2024-04-13T00:52:50.807Z,10.559999
2024-04-13T00:53:50.946Z,10.48
2024-04-13T00:54:51.099Z,10.559999
2024-04-13T00:55:51.260Z,10.559999
2024-04-13T00:56:51.359Z,10.48
2024-04-13T00:57:51.514Z,10.4
2024-04-13T00:58:51.609Z,10.4
2024-04-13T01:00:52.029Z,10.32
2024-04-13T01:01:52.107Z,10.32
2024-04-13T01:02:52.175Z,10.32
2024-04-13T01:03:52.364Z,10.32
2024-04-13T01:04:52.423Z,10.24
2024-04-13T01:05:52.571Z,10.24
2024-04-13T01:06:52.720Z,10.24
2024-04-13T01:07:52.881Z,10.24
2024-04-13T01:08:52.985Z,10.24
2024-04-13T01:09:53.130Z,10.24
2024-04-13T01:10:53.241Z,10.16
2024-04-13T01:11:53.384Z,10.16
2024-04-13T01:12:53.487Z,10.08
2024-04-13T01:13:53.635Z,10.08
2024-04-13T01:14:53.788Z,10
2024-04-13T01:15:53.941Z,10.08
2024-04-13T01:16:54.091Z,10
2024-04-13T01:17:54.318Z,10
2024-04-13T01:18:54.448Z,10
2024-04-13T01:19:54.553Z,10
2024-04-13T01:20:54.709Z,10
2024-04-13T01:21:54.854Z,10
2024-04-13T01:22:55.008Z,10
2024-04-13T01:23:55.163Z,9.92
2024-04-13T01:24:55.306Z,9.92
2024-04-13T01:25:55.453Z,9.92
2024-04-13T01:26:55.605Z,9.84
2024-04-13T01:27:55.752Z,9.84
2024-04-13T01:28:55.908Z,9.84
2024-04-13T01:29:56.013Z,9.84
2024-04-13T01:30:56.167Z,9.84
2024-04-13T01:31:56.316Z,9.84
2024-04-13T01:32:56.522Z,9.84
2024-04-13T01:33:56.627Z,9.92
2024-04-13T01:34:56.668Z,9.92
2024-04-13T01:35:56.858Z,10
2024-04-13T01:36:56.979Z,10.08
2024-04-13T01:37:57.127Z,10.08
2024-04-13T01:38:57.283Z,10.08
2024-04-13T01:39:57.436Z,10.08
2024-04-13T01:40:57.583Z,10.08
2024-04-13T01:41:57.735Z,10.08
2024-04-13T01:42:57.883Z,10.16
2024-04-13T01:43:58.052Z,10.16
2024-04-13T01:44:58.198Z,10.16
2024-04-13T01:45:58.341Z,10.16
2024-04-13T01:46:58.459Z,10.16
2024-04-13T01:47:58.674Z,10.16
2024-04-13T01:48:58.710Z,10.16
2024-04-13T01:49:58.850Z,10.24
2024-04-13T01:50:58.960Z,10.24
2024-04-13T01:51:59.112Z,10.16
2024-04-13T01:52:59.252Z,10.16
2024-04-13T01:53:59.406Z,10.16
2024-04-13T01:54:59.559Z,10.08
2024-04-13T01:55:59.713Z,10.16
2024-04-13T01:56:59.867Z,10.16
2024-04-13T01:57:59.961Z,10.16
2024-04-13T01:59:00.079Z,10.16
2024-04-13T02:00:00.242Z,10.16
2024-04-13T02:01:00.420Z,10.16
2024-04-13T02:02:00.579Z,10.16
2024-04-13T02:03:00.729Z,10.08
2024-04-13T02:04:00.892Z,10.08
2024-04-13T02:05:00.927Z,10.08
2024-04-13T02:06:01.137Z,10.08
2024-04-13T02:07:01.225Z,10.08
2024-04-13T02:08:01.332Z,10.08
2024-04-13T02:09:01.506Z,10.08
2024-04-13T02:10:01.632Z,10
2024-04-13T02:11:01.839Z,9.92
2024-04-13T02:12:02.004Z,9.92
2024-04-13T02:13:02.034Z,9.92
2024-04-13T02:14:02.189Z,9.84
2024-04-13T02:15:02.789Z,9.76
2024-04-13T02:17:02.596Z,9.679999
2024-04-13T02:18:02.802Z,9.52
2024-04-13T02:19:02.905Z,9.599999
2024-04-13T02:20:03.007Z,9.679999
2024-04-13T02:21:03.180Z,9.599999
2024-04-13T02:22:03.341Z,9.599999
2024-04-13T02:23:03.453Z,9.599999
2024-04-13T02:24:03.586Z,9.52
2024-04-13T02:25:03.722Z,9.44
2024-04-13T02:26:03.813Z,9.44
2024-04-13T02:27:04.149Z,9.36
2024-04-13T02:28:04.061Z,9.28
2024-04-13T02:29:04.222Z,9.28
2024-04-13T02:30:04.340Z,9.2
2024-04-13T02:31:04.475Z,9.12
2024-04-13T02:32:04.625Z,9.12
2024-04-13T02:33:04.836Z,9.2
2024-04-13T02:34:04.921Z,9.2
2024-04-13T02:35:05.043Z,9.2
2024-04-13T02:36:05.402Z,9.2
2024-04-13T02:37:05.334Z,9.2
2024-04-13T02:38:05.432Z,9.12
2024-04-13T02:39:05.604Z,9.12
2024-04-13T02:40:05.740Z,9.04
2024-04-13T02:41:05.884Z,9.04
2024-04-13T02:42:06.050Z,9.04
2024-04-13T02:44:06.250Z,8.88
2024-04-13T02:45:06.416Z,8.8
2024-04-13T02:46:06.500Z,8.8
2024-04-13T02:47:06.650Z,8.8
2024-04-13T02:48:06.908Z,8.8
2024-04-13T02:49:07.006Z,8.8
2024-04-13T02:50:07.053Z,8.72
2024-04-13T02:51:07.220Z,8.72
2024-04-13T02:52:07.354Z,8.72
2024-04-13T02:53:07.503Z,8.639999
2024-04-13T02:54:07.646Z,8.639999
2024-04-13T02:55:07.759Z,8.639999
2024-04-13T02:56:07.864Z,8.639999
2024-04-13T02:57:08.029Z,8.639999
2024-04-13T02:58:08.172Z,8.639999
2024-04-13T02:59:08.330Z,8.639999
2024-04-13T03:00:08.479Z,8.639999
2024-04-13T03:01:08.646Z,8.639999
2024-04-13T03:02:11.001Z,8.639999
2024-04-13T03:03:09.011Z,8.639999
2024-04-13T03:04:09.118Z,8.639999
2024-04-13T03:05:09.187Z,8.639999
2024-04-13T03:06:09.347Z,8.639999
2024-04-13T03:07:09.500Z,8.639999
2024-04-13T03:08:09.647Z,8.639999
2024-04-13T03:09:09.798Z,8.559999
2024-04-13T03:10:09.937Z,8.559999
2024-04-13T03:12:10.243Z,8.559999
2024-04-13T03:13:10.397Z,8.559999
2024-04-13T03:14:10.551Z,8.559999
2024-04-13T03:15:10.702Z,8.559999
2024-04-13T03:16:10.899Z,8.559999
2024-04-13T03:17:10.977Z,8.48
2024-04-13T03:18:11.116Z,8.48
2024-04-13T03:19:11.253Z,8.48
2024-04-13T03:20:11.436Z,8.48
2024-04-13T03:21:11.564Z,8.559999
2024-04-13T03:22:11.714Z,8.559999
2024-04-13T03:23:11.868Z,8.559999
2024-04-13T03:24:12.011Z,8.559999
2024-04-13T03:25:12.115Z,8.559999
2024-04-13T03:26:12.223Z,8.559999
2024-04-13T03:27:12.392Z,8.559999
2024-04-13T03:28:12.518Z,8.559999
2024-04-13T03:29:12.670Z,8.48
2024-04-13T03:30:12.815Z,8.559999
2024-04-13T03:31:12.950Z,8.559999
2024-04-13T03:32:13.115Z,8.559999
2024-04-13T03:33:13.300Z,8.48
2024-04-13T03:34:13.381Z,8.48
2024-04-13T03:35:13.536Z,8.48
2024-04-13T03:36:13.685Z,8.559999
2024-04-13T03:37:13.836Z,8.559999
2024-04-13T03:38:13.990Z,8.48
2024-04-13T03:39:14.166Z,8.48
2024-04-13T03:40:14.296Z,8.48
2024-04-13T03:41:14.415Z,8.4
2024-04-13T03:42:14.564Z,8.4
2024-04-13T03:43:14.694Z,8.4
2024-04-13T03:44:14.845Z,8.4
2024-04-13T03:45:15.004Z,8.4
2024-04-13T03:46:15.153Z,8.4
2024-04-13T03:47:15.332Z,8.48
2024-04-13T03:48:15.533Z,8.48
2024-04-13T03:49:15.615Z,8.48
2024-04-13T03:50:15.754Z,8.4
2024-04-13T03:51:15.917Z,8.4
2024-04-13T03:52:16.069Z,8.4
2024-04-13T03:53:16.212Z,8.4
2024-04-13T03:54:16.435Z,8.48
2024-04-13T03:55:16.514Z,8.48
2024-04-13T03:56:16.614Z,8.48
2024-04-13T03:57:16.729Z,8.48
2024-04-13T03:58:16.874Z,8.559999
2024-04-13T03:59:17.026Z,8.559999
2024-04-13T04:00:17.208Z,8.559999
2024-04-13T04:01:17.343Z,8.559999
2024-04-13T04:02:17.495Z,8.639999
2024-04-13T04:03:17.650Z,8.639999
2024-04-13T04:04:17.801Z,8.559999
2024-04-13T04:05:17.935Z,8.559999
2024-04-13T04:06:18.055Z,8.559999
2024-04-13T04:07:18.187Z,8.559999
2024-04-13T04:08:18.338Z,8.48
2024-04-13T04:09:18.494Z,8.559999
2024-04-13T04:10:18.595Z,8.48
2024-04-13T04:11:18.757Z,8.48
2024-04-13T04:12:18.945Z,8.48
2024-04-13T04:13:19.050Z,8.48
2024-04-13T04:14:19.209Z,8.48
2024-04-13T04:15:19.392Z,8.4
2024-04-13T04:16:19.808Z,8.4
2024-04-13T04:18:19.905Z,8.48
2024-04-13T04:19:19.967Z,8.4
2024-04-13T04:20:20.055Z,8.4
2024-04-13T04:21:20.233Z,8.4
2024-04-13T04:22:20.371Z,8.48
2024-04-13T04:23:20.520Z,8.48
2024-04-13T04:24:20.694Z,8.559999
2024-04-13T04:25:20.819Z,8.639999
2024-04-13T04:26:20.973Z,8.639999
2024-04-13T04:27:21.185Z,8.559999
2024-04-13T04:28:21.268Z,8.559999
2024-04-13T04:29:21.443Z,8.639999
2024-04-13T04:30:21.612Z,8.559999
2024-04-13T04:31:21.680Z,8.639999
2024-04-13T04:32:21.830Z,8.639999
2024-04-13T04:33:22.002Z,8.639999
2024-04-13T04:34:22.031Z,8.639999
2024-04-13T04:35:22.188Z,8.72
2024-04-13T04:36:22.359Z,8.639999
2024-04-13T04:37:22.445Z,8.639999
2024-04-13T04:38:22.596Z,8.72
2024-04-13T04:39:22.765Z,8.72
2024-04-13T04:40:22.889Z,8.72
2024-04-13T04:41:23.043Z,8.8
2024-04-13T04:42:23.170Z,8.88
2024-04-13T04:43:23.300Z,8.88
2024-04-13T04:44:23.460Z,8.96
2024-04-13T04:45:23.608Z,8.96
2024-04-13T04:46:23.709Z,8.96
2024-04-13T04:47:23.885Z,8.88
2024-04-13T04:48:24.081Z,8.96
2024-04-13T04:49:24.161Z,8.96
2024-04-13T04:50:24.257Z,8.96
2024-04-13T04:51:24.373Z,9.04
2024-04-13T04:52:24.509Z,9.04
2024-04-13T04:53:24.665Z,9.04
2024-04-13T04:54:24.832Z,8.96
2024-04-13T04:55:24.977Z,9.04
2024-04-13T04:56:25.074Z,9.12
2024-04-13T04:57:25.285Z,9.28
2024-04-13T04:58:25.331Z,9.36
2024-04-13T04:59:25.474Z,9.44
2024-04-13T05:00:25.608Z,9.44
2024-04-13T05:01:25.773Z,9.36
2024-04-13T05:02:26.153Z,9.44
2024-04-13T05:03:26.034Z,9.44
2024-04-13T05:04:26.130Z,9.599999
2024-04-13T05:05:26.234Z,9.679999
2024-04-13T05:06:26.450Z,9.76
2024-04-13T05:07:26.539Z,9.76
2024-04-13T05:08:26.641Z,9.76
2024-04-13T05:09:26.858Z,9.84
2024-04-13T05:10:26.925Z,9.92
2024-04-13T05:11:27.046Z,9.92
2024-04-13T05:12:27.174Z,10
2024-04-13T05:13:27.316Z,10.08
2024-04-13T05:14:27.458Z,10.16
2024-04-13T05:15:27.622Z,10.24
2024-04-13T05:16:27.768Z,10.4
2024-04-13T05:17:27.895Z,10.559999
2024-04-13T05:18:28.166Z,10.559999
2024-04-13T05:19:28.243Z,10.639999
2024-04-13T05:20:28.260Z,10.719999
2024-04-13T05:21:28.444Z,10.719999
2024-04-13T05:22:28.575Z,10.8
2024-04-13T05:23:28.718Z,10.96
2024-04-13T05:24:28.884Z,11.12
2024-04-13T05:25:28.986Z,11.12
2024-04-13T05:26:29.122Z,11.28
2024-04-13T05:27:29.230Z,11.28
2024-04-13T05:29:29.537Z,11.44
2024-04-13T05:30:29.700Z,11.52
2024-04-13T05:31:29.793Z,11.599999
2024-04-13T05:32:30.002Z,11.679999
2024-04-13T05:33:30.207Z,11.679999
2024-04-13T05:34:30.233Z,11.759999
2024-04-13T05:35:30.391Z,11.84
2024-04-13T05:36:30.495Z,11.92
2024-04-13T05:37:30.663Z,11.92
2024-04-13T05:38:30.791Z,12.08
2024-04-13T05:39:31.245Z,12.24
2024-04-13T05:40:31.093Z,12.32
2024-04-13T05:41:31.199Z,12.4
2024-04-13T05:42:31.367Z,12.4
2024-04-13T05:43:31.456Z,12.4
2024-04-13T05:44:31.607Z,12.559999
2024-04-13T05:45:31.836Z,12.639999
2024-04-13T05:46:31.894Z,12.719999
2024-04-13T05:47:32.043Z,12.88
2024-04-13T05:48:32.196Z,12.88
2024-04-13T05:49:32.313Z,12.799999
2024-04-13T05:50:32.471Z,12.799999
2024-04-13T05:51:32.647Z,12.96
2024-04-13T05:52:32.719Z,13.04
2024-04-13T05:53:32.871Z,13.04
2024-04-13T05:54:33.066Z,13.2
2024-04-13T05:55:33.178Z,13.28
2024-04-13T05:56:33.329Z,13.2
2024-04-13T05:57:33.493Z,13.2
2024-04-13T05:58:33.632Z,13.28
2024-04-13T05:59:33.733Z,13.44
2024-04-13T06:00:33.993Z,13.599999
2024-04-13T06:01:34.019Z,13.679999
2024-04-13T06:02:34.154Z,13.759999
2024-04-13T06:03:34.288Z,13.92
2024-04-13T06:04:34.514Z,14
2024-04-13T06:05:34.592Z,14.08
2024-04-13T06:06:34.812Z,14
2024-04-13T06:07:34.853Z,14.08
2024-04-13T06:08:35.024Z,14.24
2024-04-13T06:09:35.179Z,14.32
2024-04-13T06:10:35.299Z,14.4
2024-04-13T06:11:35.447Z,14.48
2024-04-13T06:12:35.626Z,14.48
2024-04-13T06:13:35.699Z,14.639999
2024-04-13T06:14:35.860Z,14.719999
2024-04-13T06:15:36.052Z,14.639999
2024-04-13T06:16:36.227Z,14.559999
2024-04-13T06:17:36.452Z,14.639999
2024-04-13T06:18:36.542Z,14.639999
2024-04-13T06:19:36.533Z,14.719999
2024-04-13T06:20:36.668Z,14.719999
2024-04-13T06:21:36.766Z,14.559999
2024-04-13T06:22:36.918Z,14.559999
2024-04-13T06:23:37.049Z,14.639999
2024-04-13T06:24:37.209Z,14.639999
2024-04-13T06:25:37.277Z,14.719999
2024-04-13T06:26:37.436Z,14.719999
2024-04-13T06:27:37.613Z,14.719999
2024-04-13T06:28:37.736Z,14.719999
2024-04-13T06:29:37.835Z,14.88
2024-04-13T06:30:38.019Z,14.96
2024-04-13T06:31:38.146Z,15.12
2024-04-13T06:32:38.366Z,15.28
2024-04-13T06:33:38.533Z,15.36
2024-04-13T06:34:38.593Z,15.44
2024-04-13T06:35:38.685Z,15.44
2024-04-13T06:36:40.407Z,15.599999
2024-04-13T06:37:38.944Z,15.759999
2024-04-13T06:38:39.102Z,15.679999
2024-04-13T06:39:39.271Z,15.759999
2024-04-13T06:40:39.398Z,15.92
2024-04-13T06:41:39.562Z,16
2024-04-13T06:42:39.768Z,16.08
2024-04-13T06:43:39.810Z,16.08
2024-04-13T06:44:39.966Z,16.16
2024-04-13T06:45:40.202Z,16.24
2024-04-13T06:46:40.243Z,16.32
2024-04-13T06:47:40.325Z,16.32
2024-04-13T06:48:40.517Z,16.4
2024-04-13T06:49:40.615Z,16.8
2024-04-13T06:50:40.775Z,17.12
2024-04-13T06:51:40.986Z,17.36
2024-04-13T06:52:41.089Z,17.6
2024-04-13T06:53:41.222Z,17.84
2024-04-13T06:54:43.335Z,17.92
2024-04-13T06:55:41.528Z,18
2024-04-13T06:56:41.674Z,18.24
2024-04-13T06:57:41.958Z,18.32
2024-04-13T06:58:41.980Z,18.8
2024-04-13T06:59:42.132Z,19.04
2024-04-13T07:00:42.266Z,19.04
2024-04-13T07:01:42.341Z,18.8
2024-04-13T07:02:42.517Z,19.04
2024-04-13T07:03:42.655Z,19.12
2024-04-13T07:04:42.797Z,19.28
2024-04-13T07:05:42.842Z,19.2
2024-04-13T07:06:43.012Z,19.04
2024-04-13T07:07:43.147Z,19.12
2024-04-13T07:08:44.509Z,19.04
2024-04-13T07:09:43.473Z,19.36
2024-04-13T07:10:43.569Z,19.52
2024-04-13T07:11:43.702Z,19.76
2024-04-13T07:12:43.848Z,19.84
2024-04-13T07:13:43.954Z,19.76
2024-04-13T07:14:44.071Z,20.08
2024-04-13T07:15:44.293Z,20.24
2024-04-13T07:16:44.333Z,20.64
2024-04-13T07:17:45.519Z,20.72
2024-04-13T07:18:44.635Z,20.48
2024-04-13T07:19:44.766Z,20.32
2024-04-13T07:20:44.920Z,20.24
2024-04-13T07:21:45.089Z,20.16
2024-04-13T07:22:45.187Z,19.76
2024-04-13T07:23:45.281Z,20
2024-04-13T07:24:45.462Z,20.32
2024-04-13T07:25:45.587Z,20.56
2024-04-13T07:26:45.737Z,20.8
2024-04-13T07:27:45.857Z,21.2
2024-04-13T07:28:45.982Z,21.52
2024-04-13T07:29:46.090Z,21.68
2024-04-13T07:30:46.241Z,21.76
2024-04-13T07:31:46.397Z,21.84
2024-04-13T07:32:46.606Z,22.08
2024-04-13T07:33:46.813Z,21.92
2024-04-13T07:34:46.847Z,21.92
2024-04-13T07:35:46.944Z,21.84
2024-04-13T07:36:47.177Z,21.68
2024-04-13T07:37:47.200Z,21.68
2024-04-13T07:38:47.354Z,21.52
2024-04-13T07:39:47.550Z,21.6
2024-04-13T07:40:47.659Z,21.68
2024-04-13T07:41:47.755Z,21.52
2024-04-13T07:42:47.926Z,21.76
2024-04-13T07:43:48.059Z,22
2024-04-13T07:44:48.213Z,21.92
2024-04-13T07:45:48.355Z,21.76
2024-04-13T07:46:48.462Z,21.84
2024-04-13T07:47:48.592Z,21.92
2024-04-13T07:48:48.752Z,21.84
2024-04-13T07:49:48.881Z,21.84
2024-04-13T07:50:49.024Z,22.08
2024-04-13T07:51:49.278Z,22.4
2024-04-13T07:53:49.476Z,22.8
2024-04-13T07:54:49.665Z,22.64
2024-04-13T07:55:49.730Z,22.8
2024-04-13T07:56:49.889Z,22.72
2024-04-13T07:57:50.047Z,22.56
2024-04-13T07:59:50.355Z,22.88
2024-04-13T08:00:50.554Z,22.88
2024-04-13T08:01:50.604Z,22.88
2024-04-13T08:02:50.760Z,22.96
2024-04-13T08:03:51.048Z,23.12
2024-04-13T08:04:51.072Z,23.52
2024-04-13T08:05:51.198Z,29.76
2024-04-13T08:06:51.395Z,35.36
2024-04-13T08:07:51.498Z,42.08
2024-04-13T08:08:51.650Z,47.04
2024-04-13T08:09:51.790Z,52.4
2024-04-13T08:10:51.923Z,56.96
2024-04-13T08:11:52.057Z,59.84
2024-04-13T08:12:52.230Z,64.32
2024-04-13T08:13:52.366Z,67.2
2024-04-13T08:14:52.518Z,69.2
2024-04-13T08:15:52.656Z,70.96
2024-04-13T08:16:52.820Z,71.68
2024-04-13T08:17:52.876Z,72.8
2024-04-13T08:19:53.175Z,71.92
2024-04-13T08:20:53.345Z,71.2
2024-04-13T08:21:53.525Z,70.8
2024-04-13T08:22:53.653Z,72
2024-04-13T08:23:53.900Z,72.16
2024-04-13T08:24:54.048Z,73.28
2024-04-13T08:25:54.147Z,72.88
2024-04-13T08:26:54.354Z,73.44
2024-04-13T08:27:54.535Z,73.36
2024-04-13T08:28:54.613Z,73.52
2024-04-13T08:29:54.746Z,74.4
2024-04-13T08:30:54.913Z,74.88
2024-04-13T08:31:54.957Z,74.96
2024-04-13T08:32:56.961Z,74.24
2024-04-13T08:33:55.265Z,73.36
2024-04-13T08:34:55.398Z,72.64
2024-04-13T08:35:55.556Z,72.32
2024-04-13T08:36:55.706Z,73.36
2024-04-13T08:37:55.813Z,72.48
2024-04-13T08:38:55.911Z,72.4
2024-04-13T08:39:56.058Z,72.72
2024-04-13T08:40:56.163Z,72.88
2024-04-13T08:41:56.321Z,72.96
2024-04-13T08:42:56.430Z,72.96
2024-04-13T08:43:56.578Z,73.04
2024-04-13T08:44:56.667Z,72
2024-04-13T08:45:56.866Z,71.76
2024-04-13T08:46:56.918Z,72.16
2024-04-13T08:47:57.176Z,72.32
2024-04-13T08:48:57.326Z,72.16
2024-04-13T08:49:57.278Z,73.28
2024-04-13T08:50:57.379Z,75.04
2024-04-13T08:51:57.535Z,74.56
2024-04-13T08:52:57.690Z,73.92
2024-04-13T08:53:57.835Z,74.56
2024-04-13T08:54:57.996Z,74.72
2024-04-13T08:55:58.131Z,74.16
2024-04-13T08:56:58.233Z,73.2
2024-04-13T08:57:58.389Z,73.04
2024-04-13T08:58:58.559Z,72.64
2024-04-13T08:59:58.696Z,72.56
2024-04-13T09:00:58.995Z,70.88
2024-04-13T09:01:59.010Z,69.92
2024-04-13T09:02:59.129Z,68.96
2024-04-13T09:03:59.350Z,68.64
2024-04-13T09:04:59.365Z,68.32
2024-04-13T09:05:59.505Z,68.4
2024-04-13T09:06:59.659Z,69.36
2024-04-13T09:07:59.807Z,69.36
2024-04-13T09:08:59.910Z,70.24
2024-04-13T09:10:00.059Z,70.32
2024-04-13T09:11:00.234Z,69.76
2024-04-13T09:12:00.361Z,70.48
2024-04-13T09:13:00.461Z,70.32
2024-04-13T09:14:00.619Z,70.16
2024-04-13T09:15:00.776Z,69.44
2024-04-13T09:16:00.929Z,69.52
2024-04-13T09:17:01.088Z,69.52
2024-04-13T09:18:01.294Z,71.6
2024-04-13T09:19:03.101Z,71.44
2024-04-13T09:20:01.556Z,71.92
2024-04-13T09:21:01.711Z,72.48
2024-04-13T09:22:01.830Z,71.12
2024-04-13T09:23:01.931Z,71.04
2024-04-13T09:24:02.085Z,71.36
2024-04-13T09:25:02.200Z,70.16
2024-04-13T09:26:02.336Z,70.48
2024-04-13T09:27:02.490Z,70.56
2024-04-13T09:28:02.643Z,71.2
2024-04-13T09:29:02.746Z,70.72
2024-04-13T09:30:02.891Z,70.96
2024-04-13T09:31:03.043Z,70.64
2024-04-13T09:32:03.165Z,69.44
2024-04-13T09:33:03.326Z,70.16
2024-04-13T09:34:03.491Z,69.84
2024-04-13T09:35:03.604Z,70.16
2024-04-13T09:36:03.704Z,70.64
2024-04-13T09:37:03.867Z,72.08
2024-04-13T09:38:04.005Z,72.24
2024-04-13T09:39:04.165Z,74.24
2024-04-13T09:40:04.320Z,73.84
2024-04-13T09:41:04.463Z,73.28
2024-04-13T09:42:04.612Z,72.4
2024-04-13T09:43:04.768Z,71.2
2024-04-13T09:44:04.923Z,70
2024-04-13T09:45:05.021Z,68.16
2024-04-13T09:46:05.174Z,67.2
2024-04-13T09:47:05.335Z,66.48
2024-04-13T09:48:05.488Z,67.04
2024-04-13T09:49:05.631Z,68.08
2024-04-13T09:50:05.630Z,69.84
2024-04-13T09:51:05.783Z,70.16
2024-04-13T09:52:05.935Z,71.12
2024-04-13T09:53:06.085Z,70.88
2024-04-13T09:54:06.241Z,71.84
2024-04-13T09:55:06.424Z,71.36
2024-04-13T09:56:06.494Z,70.88
2024-04-13T09:57:06.635Z,70.32
2024-04-13T09:58:06.826Z,71.36
2024-04-13T09:59:06.952Z,70.96
2024-04-13T10:00:08.462Z,70.24
2024-04-13T10:02:07.442Z,70.64
2024-04-13T10:03:07.519Z,70.96
2024-04-13T10:04:07.672Z,71.6
2024-04-13T10:05:07.704Z,72.24
2024-04-13T10:06:07.857Z,73.12
2024-04-13T10:07:07.963Z,74.4
2024-04-13T10:08:08.110Z,72.72
2024-04-13T10:09:08.212Z,71.36
2024-04-13T10:10:08.378Z,70
2024-04-13T10:11:08.519Z,68.96
2024-04-13T10:12:08.666Z,69.52
2024-04-13T10:13:08.836Z,69.36
2024-04-13T10:14:08.967Z,69.04
2024-04-13T10:15:09.067Z,68
2024-04-13T10:16:09.224Z,67.36
2024-04-13T10:17:09.446Z,66.88
2024-04-13T10:18:09.506Z,67.12
2024-04-13T10:19:09.635Z,66.24
2024-04-13T10:20:09.790Z,65.76
2024-04-13T10:21:09.934Z,66.48
2024-04-13T10:22:15.075Z,66.32
2024-04-13T10:23:10.142Z,66.64
2024-04-13T10:24:10.291Z,67.84
2024-04-13T10:25:10.392Z,69.68
2024-04-13T10:26:10.547Z,69.2
2024-04-13T10:27:10.706Z,68.88
2024-04-13T10:28:10.806Z,68.8
2024-04-13T10:29:10.954Z,68.96
2024-04-13T10:30:11.063Z,69.36
2024-04-13T10:31:11.206Z,68.8
2024-04-13T10:32:11.355Z,69.68
2024-04-13T10:33:11.458Z,70.8
2024-04-13T10:34:11.607Z,71.12
2024-04-13T10:35:11.787Z,71.2
2024-04-13T10:36:11.913Z,69.84
2024-04-13T10:37:12.062Z,69.6
2024-04-13T10:38:12.216Z,69.76
2024-04-13T10:39:12.387Z,69.28
2024-04-13T10:40:12.519Z,68.8
2024-04-13T10:41:12.668Z,68.24
2024-04-13T10:42:12.920Z,67.6
2024-04-13T10:43:12.919Z,68.64
2024-04-13T10:44:13.078Z,68.56
2024-04-13T10:45:13.242Z,68.16
2024-04-13T10:46:13.335Z,66.88
2024-04-13T10:47:13.514Z,66.8
2024-04-13T10:48:13.702Z,67.68
2024-04-13T10:49:15.848Z,66.64
2024-04-13T10:50:13.930Z,67.92
2024-04-13T10:51:14.056Z,67.84
2024-04-13T10:52:14.140Z,68
2024-04-13T10:53:14.301Z,68.16
2024-04-13T10:54:14.466Z,67.68
2024-04-13T10:55:14.595Z,67.6
2024-04-13T10:56:14.745Z,67.76
2024-04-13T10:57:16.675Z,68.72
2024-04-13T10:58:14.996Z,69.76
2024-04-13T10:59:15.150Z,69.52
2024-04-13T11:00:15.273Z,69.28
2024-04-13T11:01:18.033Z,69.12
2024-04-13T11:02:15.571Z,69.04
2024-04-13T11:03:15.809Z,69.28
2024-04-13T11:04:15.922Z,69.84
2024-04-13T11:05:16.011Z,69.36
2024-04-13T11:06:16.229Z,69.28
2024-04-13T11:07:18.498Z,68.96
2024-04-13T11:08:16.466Z,68.8
2024-04-13T11:09:16.661Z,68.48
2024-04-13T11:10:16.717Z,68.4
2024-04-13T11:11:16.884Z,68.72
2024-04-13T11:12:17.039Z,68.32
2024-04-13T11:13:19.293Z,67.68
2024-04-13T11:14:17.280Z,67.84
2024-04-13T11:15:17.422Z,68.64
2024-04-13T11:16:17.530Z,68.64
2024-04-13T11:17:17.678Z,68.8
2024-04-13T11:18:17.823Z,68.8
2024-04-13T11:19:19.465Z,68.32
2024-04-13T11:20:18.043Z,68.72
2024-04-13T11:21:18.170Z,68.96
2024-04-13T11:22:18.300Z,67.76
2024-04-13T11:23:18.438Z,67.2
2024-04-13T11:24:18.574Z,67.12
2024-04-13T11:25:19.575Z,67.68
2024-04-13T11:26:18.795Z,67.36
2024-04-13T11:27:18.976Z,67.68
2024-04-13T11:28:19.099Z,67.68
2024-04-13T11:29:19.210Z,68.56
2024-04-13T11:30:19.398Z,69.52
2024-04-13T11:31:19.520Z,70
2024-04-13T11:32:19.699Z,68.56
2024-04-13T11:33:19.779Z,68.16
2024-04-13T11:34:19.905Z,68.4
2024-04-13T11:35:20.065Z,69.12
2024-04-13T11:36:20.374Z,70.24
2024-04-13T11:37:20.329Z,70.64
2024-04-13T11:38:20.464Z,69.76
2024-04-13T11:39:20.602Z,69.6
2024-04-13T11:40:20.725Z,68.88
2024-04-13T11:41:20.879Z,68.24
2024-04-13T11:42:21.034Z,68.32
2024-04-13T11:43:21.182Z,68.64
2024-04-13T11:44:21.219Z,68.24
2024-04-13T11:45:21.371Z,68.08
2024-04-13T11:46:21.479Z,68.4
2024-04-13T11:47:21.744Z,68.56
2024-04-13T11:48:21.953Z,68.56
2024-04-13T11:49:21.963Z,69.12
2024-04-13T11:50:22.039Z,70.08
2024-04-13T11:51:22.225Z,69.52
2024-04-13T11:52:22.306Z,70
2024-04-13T11:53:22.437Z,70.48
2024-04-13T11:54:22.587Z,69.84
2024-04-13T11:55:22.692Z,70.72
2024-04-13T11:56:22.847Z,71.68
2024-04-13T11:57:22.962Z,71.2
2024-04-13T11:58:23.478Z,71.52
2024-04-13T12:00:23.334Z,70.24
2024-04-13T12:01:23.423Z,70.72
2024-04-13T12:02:23.618Z,69.68
2024-04-13T12:03:23.715Z,69.36
2024-04-13T12:04:23.921Z,70.08
2024-04-13T12:05:23.966Z,70.56
2024-04-13T12:06:24.136Z,70.16
2024-04-13T12:07:24.265Z,69.92
2024-04-13T12:08:24.417Z,69.2
2024-04-13T12:09:24.595Z,68.72
2024-04-13T12:10:24.739Z,68
2024-04-13T12:11:24.980Z,67.68
2024-04-13T12:12:25.006Z,67.04
2024-04-13T12:13:25.114Z,67.44
2024-04-13T12:14:25.513Z,67.76
2024-04-13T12:15:25.408Z,67.68
2024-04-13T12:16:25.532Z,68.08
2024-04-13T12:17:25.682Z,67.84
2024-04-13T12:18:25.955Z,68.32
2024-04-13T12:19:25.951Z,68.96
2024-04-13T12:20:26.034Z,68.72
2024-04-13T12:21:26.293Z,69.2
2024-04-13T12:22:26.294Z,70.16
2024-04-13T12:23:26.400Z,69.44
2024-04-13T12:24:26.549Z,69.44
2024-04-13T12:25:26.654Z,69.76
2024-04-13T12:26:26.795Z,68.96
2024-04-13T12:27:26.965Z,69.12
2024-04-13T12:28:27.103Z,68.24
2024-04-13T12:29:27.200Z,68.64
2024-04-13T12:30:27.310Z,69.04
2024-04-13T12:31:27.408Z,68.48
2024-04-13T12:32:27.610Z,69.04
2024-04-13T12:33:27.741Z,70.24
2024-04-13T12:34:27.818Z,71.28
2024-04-13T12:35:27.969Z,71.04
2024-04-13T12:36:28.130Z,70.16
2024-04-13T12:37:28.270Z,69.2
2024-04-13T12:38:28.370Z,69.04
2024-04-13T12:39:28.580Z,68.56
2024-04-13T12:40:28.625Z,68.64
2024-04-13T12:41:28.786Z,68.8
2024-04-13T12:42:28.906Z,68.8
2024-04-13T12:43:29.000Z,68.4
2024-04-13T12:44:29.146Z,69.04
2024-04-13T12:45:29.316Z,69.52
2024-04-13T12:46:29.397Z,69.12
2024-04-13T12:47:29.533Z,69.44
2024-04-13T12:48:29.714Z,69.68
2024-04-13T12:49:29.819Z,70.08
2024-04-13T12:50:29.890Z,70.96
2024-04-13T12:51:30.041Z,71.12
2024-04-13T12:52:30.199Z,71.44
2024-04-13T12:53:30.352Z,71.44
2024-04-13T12:54:30.524Z,71.52
2024-04-13T12:55:30.647Z,71.6
2024-04-13T12:56:30.800Z,71.12
2024-04-13T12:57:30.976Z,70.8
2024-04-13T12:58:31.191Z,70.96
2024-04-13T12:59:31.262Z,70.4
2024-04-13T13:00:31.462Z,69.36
2024-04-13T13:01:31.586Z,68.16
2024-04-13T13:02:31.759Z,68
2024-04-13T13:03:31.889Z,67.92
2024-04-13T13:04:31.996Z,67.6
2024-04-13T13:05:32.071Z,67.76
2024-04-13T13:06:32.254Z,67.6